createdAt,value
2022-08-17T00:00:34.460Z,99681.84
2022-08-17T00:05:41.953Z,99684.25
2022-08-17T00:10:45.390Z,99687.75
2022-08-17T00:15:47.299Z,99693.16
2022-08-17T00:20:48.870Z,99682.69
2022-08-17T00:25:50.432Z,99694.47
2022-08-17T00:30:53.339Z,99695.44
2022-08-17T00:35:55.887Z,99695.13
2022-08-17T00:41:00.294Z,99695.66
2022-08-17T00:46:07.412Z,99698.03
2022-08-17T00:51:44.747Z,99696.56
2022-08-17T00:56:48.487Z,99696.16
2022-08-17T01:01:50.985Z,99696.88
2022-08-17T01:06:53.259Z,99697.47
2022-08-17T01:11:54.836Z,99695.63
2022-08-17T01:16:56.591Z,99691.81
2022-08-17T01:22:14.388Z,99696.97
2022-08-17T01:27:18.436Z,99701.91
2022-08-17T01:32:22.189Z,99705.22
2022-08-17T01:37:31.133Z,99702.75
2022-08-17T01:42:46.429Z,99702.75
2022-08-17T01:47:48.032Z,99703.72
2022-08-17T01:52:52.180Z,99719.03
2022-08-17T01:57:53.892Z,99708.50
2022-08-17T02:02:55.660Z,99714.13
2022-08-17T02:08:00.456Z,99716.13
2022-08-17T02:13:04.190Z,99727.03
2022-08-17T02:18:06.366Z,99720.75
2022-08-17T02:23:08.976Z,99709.28
2022-08-17T02:28:10.842Z,99706.09
2022-08-17T02:33:12.456Z,99710.03
2022-08-17T02:38:14.627Z,99709.25
2022-08-17T02:43:16.332Z,99700.81
2022-08-17T02:48:30.565Z,99699.91
2022-08-17T02:53:35.888Z,99710.69
2022-08-17T02:58:38.002Z,99707.03
2022-08-17T03:03:39.984Z,99705.88
2022-08-17T03:08:41.569Z,99708.25
2022-08-17T03:13:43.179Z,99708.25
2022-08-17T03:18:44.736Z,99702.09
2022-08-17T03:23:46.273Z,99698.56
2022-08-17T03:28:47.836Z,99690.47
2022-08-17T03:33:49.368Z,99691.94
2022-08-17T03:38:51.064Z,99688.63
2022-08-17T03:43:52.716Z,99687.91
2022-08-17T03:49:13.127Z,99695.94
2022-08-17T03:54:33.163Z,99683.88
2022-08-17T03:59:35.493Z,99687.06
2022-08-17T04:04:38.153Z,99687.16
2022-08-17T04:09:39.699Z,99691.00
2022-08-17T04:14:52.909Z,99691.56
2022-08-17T04:19:56.629Z,99694.28
2022-08-17T04:24:58.854Z,99698.06
2022-08-17T04:30:01.010Z,99705.69
2022-08-17T04:35:02.556Z,99712.22
2022-08-17T04:40:23.027Z,99713.97
2022-08-17T04:45:28.098Z,99725.09
2022-08-17T04:50:35.613Z,99728.53
2022-08-17T04:55:37.435Z,99730.00
2022-08-17T05:00:39.387Z,99733.91
2022-08-17T05:05:49.448Z,99735.22
2022-08-17T05:10:52.018Z,99735.91
2022-08-17T05:15:59.206Z,99745.16
2022-08-17T05:21:00.863Z,99743.00
2022-08-17T05:26:02.586Z,99742.56
2022-08-17T05:31:04.319Z,99749.16
2022-08-17T05:36:08.147Z,99753.31
2022-08-17T05:41:10.855Z,99748.25
2022-08-17T05:46:20.509Z,99748.97
2022-08-17T05:51:49.434Z,99754.59
2022-08-17T05:57:12.119Z,99758.06
2022-08-17T06:02:48.031Z,99753.66
2022-08-17T06:07:54.139Z,99755.56
2022-08-17T06:13:14.502Z,99753.56
2022-08-17T06:18:19.234Z,99758.97
2022-08-17T06:23:37.850Z,99766.22
2022-08-17T06:28:52.122Z,99768.00
2022-08-17T06:33:54.152Z,99774.25
2022-08-17T06:39:17.150Z,99766.16
2022-08-17T06:44:43.421Z,99779.88
2022-08-17T06:50:20.475Z,99774.97
2022-08-17T06:55:38.265Z,99779.66
2022-08-17T07:00:42.277Z,99771.72
2022-08-17T07:05:48.539Z,99772.56
2022-08-17T07:10:56.836Z,99763.38
2022-08-17T07:16:14.670Z,99766.75
2022-08-17T07:21:33.814Z,99766.44
2022-08-17T07:26:35.446Z,99772.91
2022-08-17T07:31:37.283Z,99763.69
2022-08-17T07:36:38.869Z,99772.38
2022-08-17T07:41:53.378Z,99767.41
2022-08-17T07:47:19.293Z,99768.88
2022-08-17T07:52:50.752Z,99766.19
2022-08-17T07:57:57.319Z,99774.13
2022-08-17T08:03:11.583Z,99767.28
2022-08-17T08:08:30.462Z,99762.22
2022-08-17T08:13:32.435Z,99764.06
2022-08-17T08:18:55.382Z,99766.38
2022-08-17T08:24:13.023Z,99756.75
2022-08-17T08:29:49.639Z,99769.16
2022-08-17T08:35:22.658Z,99762.31
2022-08-17T08:40:59.672Z,99761.81
2022-08-17T08:46:36.861Z,99764.00
2022-08-17T08:51:57.704Z,99761.84
2022-08-17T08:57:32.923Z,99758.81
2022-08-17T09:02:51.019Z,99755.88
2022-08-17T09:08:23.564Z,99757.81
2022-08-17T09:13:41.848Z,99755.91
2022-08-17T09:19:02.448Z,99761.41
2022-08-17T09:24:14.614Z,99748.50
2022-08-17T09:29:26.382Z,99741.94
2022-08-17T09:34:43.600Z,99743.03
2022-08-17T09:39:58.606Z,99745.00
2022-08-17T09:45:24.109Z,99741.38
2022-08-17T09:51:03.224Z,99738.06
2022-08-17T09:56:26.362Z,99732.03
2022-08-17T10:01:38.420Z,99734.25
2022-08-17T10:06:58.920Z,99737.81
2022-08-17T10:12:20.484Z,99729.31
2022-08-17T10:17:31.396Z,99728.72
2022-08-17T10:23:02.318Z,99730.63
2022-08-17T10:28:19.648Z,99734.19
2022-08-17T10:33:26.040Z,99722.63
2022-08-17T10:38:34.211Z,99728.06
2022-08-17T10:44:38.632Z,99718.50
2022-08-17T10:49:15.849Z,99709.19
2022-08-17T10:54:41.696Z,99701.44
2022-08-17T10:59:43.178Z,99704.88
2022-08-17T11:05:06.300Z,99703.97
2022-08-17T11:10:42.219Z,99696.28
2022-08-17T11:15:47.392Z,99697.94
2022-08-17T11:21:24.220Z,99689.84
2022-08-17T11:26:29.679Z,99684.53
2022-08-17T11:31:41.150Z,99685.88
2022-08-17T11:36:48.902Z,99680.44
2022-08-17T11:42:01.529Z,99678.56
2022-08-17T11:47:28.810Z,99672.91
2022-08-17T11:52:46.836Z,99674.34
2022-08-17T11:58:00.195Z,99663.84
2022-08-17T12:03:31.852Z,99670.38
2022-08-17T12:08:34.379Z,99658.34
2022-08-17T12:13:43.522Z,99664.78
2022-08-17T12:19:02.287Z,99650.94
2022-08-17T12:24:31.293Z,99641.06
2022-08-17T12:29:38.345Z,99635.41
2022-08-17T12:34:42.181Z,99634.88
2022-08-17T12:39:57.320Z,99637.47
2022-08-17T12:44:59.030Z,99629.25
2022-08-17T12:50:29.885Z,99636.38
2022-08-17T12:55:36.640Z,99630.28
2022-08-17T13:00:47.395Z,99629.22
2022-08-17T13:05:52.054Z,99620.13
2022-08-17T13:10:56.531Z,99621.13
2022-08-17T13:16:05.008Z,99621.75
2022-08-17T13:21:33.066Z,99623.75
2022-08-17T13:26:37.846Z,99618.63
2022-08-17T13:31:53.019Z,99621.00
2022-08-17T13:37:29.801Z,99620.44
2022-08-17T13:42:50.184Z,99633.56
2022-08-17T13:48:16.396Z,99627.16
2022-08-17T13:53:34.005Z,99628.69
2022-08-17T13:58:38.277Z,99631.72
2022-08-17T14:03:39.818Z,99626.66
2022-08-17T14:08:43.722Z,99626.41
2022-08-17T14:13:46.646Z,99622.50
2022-08-17T14:18:56.829Z,99620.25
2022-08-17T14:23:58.910Z,99621.91
2022-08-17T14:29:00.518Z,99617.13
2022-08-17T14:34:02.214Z,99612.53
2022-08-17T14:39:05.199Z,99589.75
2022-08-17T14:44:07.197Z,99585.50
2022-08-17T14:49:10.797Z,99574.47
2022-08-17T14:54:25.649Z,99589.22
2022-08-17T14:59:35.611Z,99596.09
2022-08-17T15:04:39.845Z,99606.31
2022-08-17T15:09:45.581Z,99605.78
2022-08-17T15:14:47.148Z,99604.22
2022-08-17T15:19:48.758Z,99600.78
2022-08-17T15:24:50.307Z,99596.97
2022-08-17T15:29:51.846Z,99595.03
2022-08-17T15:34:56.762Z,99595.69
2022-08-17T15:40:00.705Z,99591.22
2022-08-17T15:45:11.484Z,99591.22
2022-08-17T15:50:13.049Z,99585.19
2022-08-17T15:55:14.911Z,99576.97
2022-08-17T16:00:17.352Z,99571.44
2022-08-17T16:05:24.067Z,99557.72
2022-08-17T16:10:35.102Z,99550.28
2022-08-17T16:15:38.085Z,99552.56
2022-08-17T16:20:39.667Z,99550.06
2022-08-17T16:25:53.872Z,99553.34
2022-08-17T16:30:55.893Z,99542.06
2022-08-17T16:35:57.461Z,99543.47
2022-08-17T16:40:59.086Z,99557.88
2022-08-17T16:46:00.995Z,99565.66
2022-08-17T16:51:04.391Z,99567.19
2022-08-17T16:56:07.417Z,99562.63
2022-08-17T17:01:09.046Z,99554.63
2022-08-17T17:06:41.183Z,99560.44
2022-08-17T17:11:45.980Z,99556.63
2022-08-17T17:17:03.370Z,99562.97
2022-08-17T17:22:42.332Z,99567.47
2022-08-17T17:28:06.650Z,99567.34
2022-08-17T17:33:17.315Z,99566.91
2022-08-17T17:38:23.506Z,99582.41
2022-08-17T17:43:40.316Z,99586.06
2022-08-17T17:48:42.434Z,99583.34
2022-08-17T17:54:08.858Z,99582.34
2022-08-17T17:59:44.245Z,99583.25
2022-08-17T18:04:58.284Z,99583.31
2022-08-17T18:10:13.693Z,99587.22
2022-08-17T18:15:37.763Z,99592.50
2022-08-17T18:20:53.218Z,99597.72
2022-08-17T18:25:58.642Z,99595.56
2022-08-17T18:31:18.677Z,99598.34
2022-08-17T18:36:29.963Z,99605.25
2022-08-17T18:41:40.459Z,99598.41
2022-08-17T18:46:42.231Z,99594.59
2022-08-17T18:51:43.966Z,99593.50
2022-08-17T18:56:56.494Z,99594.63
2022-08-17T19:02:28.254Z,99594.06
2022-08-17T19:07:45.303Z,99600.94
2022-08-17T19:13:00.276Z,99594.06
2022-08-17T19:18:20.780Z,99597.66
2022-08-17T19:23:31.567Z,99600.69
2022-08-17T19:28:48.517Z,99591.09
2022-08-17T19:33:51.402Z,99592.97
2022-08-17T19:39:17.470Z,99607.25
2022-08-17T19:44:19.042Z,99600.34
2022-08-17T19:49:23.334Z,99596.78
2022-08-17T19:54:40.584Z,99595.94
2022-08-17T19:59:49.512Z,99597.31
2022-08-17T20:04:52.010Z,99586.81
2022-08-17T20:10:04.195Z,99597.53
2022-08-17T20:15:15.569Z,99572.56
2022-08-17T20:20:46.893Z,99588.13
2022-08-17T20:26:21.252Z,99586.22
2022-08-17T20:31:41.620Z,99597.41
2022-08-17T20:36:58.894Z,99585.09
2022-08-17T20:42:15.330Z,99585.06
2022-08-17T20:47:31.850Z,99590.22
2022-08-17T20:52:45.544Z,99584.66
2022-08-17T20:57:48.482Z,99587.69
2022-08-17T21:02:51.353Z,99586.50
2022-08-17T21:07:56.375Z,99586.09
2022-08-17T21:13:15.954Z,99588.53
2022-08-17T21:18:41.489Z,99598.38
2022-08-17T21:24:07.627Z,99612.59
2022-08-17T21:29:29.572Z,99618.66
2022-08-17T21:34:43.796Z,99632.53
2022-08-17T21:40:18.108Z,99639.38
2022-08-17T21:45:22.036Z,99628.97
2022-08-17T21:50:25.108Z,99638.28
2022-08-17T21:55:30.560Z,99651.94
2022-08-17T22:00:32.762Z,99645.75
2022-08-17T22:05:37.512Z,99647.41
2022-08-17T22:10:42.529Z,99651.19
2022-08-17T22:15:48.749Z,99646.66
2022-08-17T22:20:58.102Z,99638.28
2022-08-17T22:26:05.135Z,99633.25
2022-08-17T22:31:09.292Z,99633.84
2022-08-17T22:36:30.882Z,99628.94
2022-08-17T22:41:50.952Z,99639.19
2022-08-17T22:46:58.746Z,99650.97
2022-08-17T22:52:07.052Z,99661.91
2022-08-17T22:57:31.465Z,99659.97
2022-08-17T23:02:35.470Z,99651.63
2022-08-17T23:07:52.671Z,99639.00
2022-08-17T23:12:56.946Z,99646.22
2022-08-17T23:18:05.109Z,99646.19
2022-08-17T23:23:07.477Z,99636.25
2022-08-17T23:28:09.006Z,99642.63
2022-08-17T23:33:26.838Z,99644.97
2022-08-17T23:38:28.709Z,99652.09
2022-08-17T23:43:31.604Z,99649.03
2022-08-17T23:48:36.694Z,99646.97
2022-08-17T23:53:42.056Z,99650.13
2022-08-17T23:58:44.866Z,99647.88
